Albia, Iowa
Current Conditions -  °F | °C
As of 10:53 PM on Thursday 27 Nov 2014 (Local Time) from KOTM Reporting Station
Clear Clear  
Wind Chill: -17°   Ceiling: Unl
Heat Index: -11°   Visibility: 10mi
Dew Point: -16°   Wind: 8mph
Humidity: 67%   Direction: 140°SE
Pressure: 30.34"   Gusts: NA
Location:  41.03°N, 92.81°W
Report Text: KOTM 280453Z AUTO 14007KT 10SM CLR M11/M16 A3034 RMK AO2 PRESFR SLP290 T11061156
Loading
Personal Weather Stations






























Interactive Weather Map New forecast layout! Learn more

10-Day Weather Forecast

Advertisements
Track Severe Weather on mobile